createdAt,value
2019-01-03T00:00:34.430Z,0.00
2019-01-03T00:01:34.425Z,0.00
2019-01-03T00:02:34.414Z,0.00
2019-01-03T00:03:34.394Z,0.00
2019-01-03T00:04:34.387Z,0.00
2019-01-03T00:05:34.379Z,0.00
2019-01-03T00:06:34.379Z,0.00
2019-01-03T00:07:34.377Z,0.00
2019-01-03T00:08:34.343Z,0.00
2019-01-03T00:09:34.336Z,0.00
2019-01-03T00:10:34.324Z,0.00
2019-01-03T00:11:34.310Z,0.00
2019-01-03T00:12:34.340Z,0.00
2019-01-03T00:13:34.296Z,0.00
2019-01-03T00:14:34.283Z,0.00
2019-01-03T00:15:34.269Z,0.00
2019-01-03T00:16:34.268Z,0.00
2019-01-03T00:17:34.256Z,0.00
2019-01-03T00:18:34.246Z,0.00
2019-01-03T00:19:34.228Z,0.00
2019-01-03T00:20:34.218Z,0.00
2019-01-03T00:21:34.220Z,0.00
2019-01-03T00:22:34.199Z,0.00
2019-01-03T00:23:34.183Z,0.00
2019-01-03T00:24:34.185Z,0.00
2019-01-03T00:25:34.168Z,0.00
2019-01-03T00:26:34.158Z,0.00
2019-01-03T00:27:34.155Z,0.00
2019-01-03T00:28:36.035Z,0.00
2019-01-03T00:29:34.129Z,0.00
2019-01-03T00:30:34.121Z,0.00
2019-01-03T00:31:34.110Z,0.00
2019-01-03T00:32:34.091Z,0.00
2019-01-03T00:33:34.105Z,0.00
2019-01-03T00:34:34.064Z,0.00
2019-01-03T00:35:34.068Z,0.00
2019-01-03T00:36:34.126Z,0.00
2019-01-03T00:37:34.033Z,0.00
2019-01-03T00:38:34.031Z,0.00
2019-01-03T00:39:34.021Z,0.00
2019-01-03T00:40:34.009Z,0.00
2019-01-03T00:41:34.007Z,0.00
2019-01-03T00:42:33.982Z,0.00
2019-01-03T00:43:33.987Z,0.00
2019-01-03T00:44:33.961Z,0.00
2019-01-03T00:45:33.962Z,0.00
2019-01-03T00:46:33.954Z,0.00
2019-01-03T00:47:33.942Z,0.00
2019-01-03T00:48:33.929Z,0.00
2019-01-03T00:49:33.924Z,0.00
2019-01-03T00:50:33.935Z,0.00
2019-01-03T00:51:33.891Z,0.00
2019-01-03T00:52:33.886Z,0.00
2019-01-03T00:53:33.877Z,0.00
2019-01-03T00:54:33.861Z,0.00
2019-01-03T00:55:33.846Z,0.00
2019-01-03T00:56:33.836Z,0.00
2019-01-03T00:57:33.819Z,0.00
2019-01-03T00:58:33.820Z,0.00
2019-01-03T00:59:33.813Z,0.00
2019-01-03T01:00:33.799Z,0.00
2019-01-03T01:01:33.784Z,0.00
2019-01-03T01:02:33.775Z,0.00
2019-01-03T01:03:33.772Z,0.00
2019-01-03T01:04:33.842Z,0.00
2019-01-03T01:05:33.862Z,0.00
2019-01-03T01:06:33.732Z,0.00
2019-01-03T01:07:33.717Z,0.00
2019-01-03T01:08:33.711Z,0.00
2019-01-03T01:09:33.698Z,0.00
2019-01-03T01:10:33.693Z,0.00
2019-01-03T01:11:33.687Z,0.00
2019-01-03T01:12:33.672Z,0.00
2019-01-03T01:13:33.657Z,0.00
2019-01-03T01:14:33.644Z,0.00
2019-01-03T01:15:33.642Z,0.00
2019-01-03T01:16:33.633Z,0.00
2019-01-03T01:17:33.618Z,0.00
2019-01-03T01:18:33.597Z,0.00
2019-01-03T01:19:33.602Z,0.00
2019-01-03T01:20:33.580Z,0.00
2019-01-03T01:21:33.574Z,0.00
2019-01-03T01:22:33.577Z,0.00
2019-01-03T01:23:33.553Z,0.00
2019-01-03T01:24:33.567Z,0.00
2019-01-03T01:25:33.534Z,0.00
2019-01-03T01:26:33.523Z,0.00
2019-01-03T01:27:33.508Z,0.00
2019-01-03T01:28:33.502Z,0.00
2019-01-03T01:29:33.532Z,0.00
2019-01-03T01:30:33.473Z,0.00
2019-01-03T01:31:33.467Z,0.00
2019-01-03T01:32:33.458Z,0.00
2019-01-03T01:33:33.468Z,0.00
2019-01-03T01:34:33.561Z,0.00
2019-01-03T01:35:33.454Z,0.00
2019-01-03T01:36:33.479Z,0.00
2019-01-03T01:37:33.496Z,0.00
2019-01-03T01:38:33.395Z,0.00
2019-01-03T01:39:33.379Z,0.00
2019-01-03T01:40:33.376Z,0.00
2019-01-03T01:41:33.506Z,0.00
2019-01-03T01:42:33.400Z,0.00
2019-01-03T01:43:33.417Z,0.00
2019-01-03T01:44:33.326Z,0.00
2019-01-03T01:45:33.322Z,0.00
2019-01-03T01:46:33.325Z,0.00
2019-01-03T01:47:33.307Z,0.00
2019-01-03T01:48:33.284Z,0.00
2019-01-03T01:49:33.273Z,0.00
2019-01-03T01:50:33.264Z,0.00
2019-01-03T01:51:33.246Z,0.00
2019-01-03T01:52:33.255Z,0.00
2019-01-03T01:53:33.239Z,0.00
2019-01-03T01:54:33.222Z,0.00
2019-01-03T01:55:33.215Z,0.00
2019-01-03T01:56:33.267Z,0.00
2019-01-03T01:57:33.202Z,0.00
2019-01-03T01:58:33.203Z,0.00
2019-01-03T01:59:33.178Z,0.00
2019-01-03T02:00:33.185Z,0.00
2019-01-03T02:01:33.158Z,0.00
2019-01-03T02:02:33.159Z,0.00
2019-01-03T02:03:33.167Z,0.00
2019-01-03T02:04:33.155Z,0.00
2019-01-03T02:05:33.121Z,0.00
2019-01-03T02:06:33.103Z,0.00
2019-01-03T02:07:33.102Z,0.00
2019-01-03T02:08:33.117Z,0.00
2019-01-03T02:09:33.094Z,0.00
2019-01-03T02:10:33.079Z,0.00
2019-01-03T02:11:33.092Z,0.00
2019-01-03T02:12:33.035Z,0.00
2019-01-03T02:13:33.035Z,0.00
2019-01-03T02:14:33.058Z,0.00
2019-01-03T02:15:33.022Z,0.00
2019-01-03T02:16:33.020Z,0.00
2019-01-03T02:17:33.019Z,0.00
2019-01-03T02:18:32.988Z,0.00
2019-01-03T02:19:33.005Z,0.00
2019-01-03T02:20:33.003Z,0.00
2019-01-03T02:21:32.962Z,0.00
2019-01-03T02:22:32.937Z,0.00
2019-01-03T02:23:32.918Z,0.00
2019-01-03T02:24:32.913Z,0.00
2019-01-03T02:25:32.911Z,0.00
2019-01-03T02:26:32.904Z,0.00
2019-01-03T02:27:32.881Z,0.00
2019-01-03T02:28:32.883Z,0.00
2019-01-03T02:29:32.868Z,0.00
2019-01-03T02:30:32.845Z,0.00
2019-01-03T02:31:32.842Z,0.00
2019-01-03T02:32:32.843Z,0.00
2019-01-03T02:33:32.855Z,0.00
2019-01-03T02:34:32.829Z,0.00
2019-01-03T02:35:32.808Z,0.00
2019-01-03T02:36:32.846Z,0.00
2019-01-03T02:37:32.769Z,0.00
2019-01-03T02:38:32.765Z,0.00
2019-01-03T02:39:32.777Z,0.00
2019-01-03T02:40:32.751Z,0.00
2019-01-03T02:41:33.585Z,0.00
2019-01-03T02:42:32.724Z,0.00
2019-01-03T02:43:32.711Z,0.00
2019-01-03T02:44:32.706Z,0.00
2019-01-03T02:45:32.726Z,0.00
2019-01-03T02:46:32.687Z,0.00
2019-01-03T02:47:32.683Z,0.00
2019-01-03T02:48:32.651Z,0.00
2019-01-03T02:49:32.674Z,0.00
2019-01-03T02:50:32.649Z,0.00
2019-01-03T02:51:32.658Z,0.00
2019-01-03T02:52:32.624Z,0.00
2019-01-03T02:53:32.617Z,0.00
2019-01-03T02:54:32.606Z,0.00
2019-01-03T02:55:32.586Z,0.00
2019-01-03T02:56:32.587Z,0.00
2019-01-03T02:57:32.570Z,0.00
2019-01-03T02:58:32.597Z,0.00
2019-01-03T02:59:32.548Z,0.00
2019-01-03T03:00:32.535Z,0.00
2019-01-03T03:01:32.517Z,0.00
2019-01-03T03:02:32.509Z,0.00
2019-01-03T03:03:32.512Z,0.00
2019-01-03T03:04:32.484Z,0.00
2019-01-03T03:05:32.471Z,0.00
2019-01-03T03:06:32.471Z,0.00
2019-01-03T03:07:32.498Z,0.00
2019-01-03T03:08:32.447Z,0.00
2019-01-03T03:09:32.433Z,0.00
2019-01-03T03:10:32.426Z,0.00
2019-01-03T03:11:32.414Z,0.00
2019-01-03T03:12:32.421Z,0.00
2019-01-03T03:13:32.388Z,0.00
2019-01-03T03:14:32.381Z,0.00
2019-01-03T03:15:32.377Z,0.00
2019-01-03T03:16:32.394Z,0.00
2019-01-03T03:17:32.346Z,0.00
2019-01-03T03:18:32.361Z,0.00
2019-01-03T03:19:32.355Z,0.00
2019-01-03T03:20:32.313Z,0.00
2019-01-03T03:21:32.297Z,0.00
2019-01-03T03:22:32.290Z,0.00
2019-01-03T03:23:32.272Z,0.00
2019-01-03T03:24:32.265Z,0.00
2019-01-03T03:25:32.265Z,0.00
2019-01-03T03:26:32.251Z,0.00
2019-01-03T03:27:32.232Z,0.00
2019-01-03T03:28:32.229Z,0.00
2019-01-03T03:29:32.216Z,0.00
2019-01-03T03:30:32.206Z,0.00
2019-01-03T03:31:32.189Z,0.00
2019-01-03T03:32:32.186Z,0.00
2019-01-03T03:33:32.187Z,0.00
2019-01-03T03:34:32.154Z,0.00
2019-01-03T03:35:32.153Z,0.00
2019-01-03T03:36:32.144Z,0.00
2019-01-03T03:37:32.124Z,0.00
2019-01-03T03:38:32.119Z,0.00
2019-01-03T03:39:32.106Z,0.00
2019-01-03T03:40:32.100Z,0.00
2019-01-03T03:41:32.098Z,0.00
2019-01-03T03:42:32.072Z,0.00
2019-01-03T03:43:32.078Z,0.00
2019-01-03T03:44:32.078Z,0.00
2019-01-03T03:45:32.059Z,0.00
2019-01-03T03:46:32.048Z,0.00
2019-01-03T03:47:32.028Z,0.00
2019-01-03T03:48:32.004Z,0.00
2019-01-03T03:49:32.005Z,0.00
2019-01-03T03:50:31.989Z,0.00
2019-01-03T03:51:31.980Z,0.00
2019-01-03T03:52:31.972Z,0.00
2019-01-03T03:53:31.975Z,0.00
2019-01-03T03:54:31.945Z,0.00
2019-01-03T03:55:31.937Z,0.00
2019-01-03T03:56:31.938Z,0.00
2019-01-03T03:57:31.960Z,0.00
2019-01-03T03:58:31.920Z,0.00
2019-01-03T03:59:32.015Z,0.00
2019-01-03T04:00:31.980Z,0.00
2019-01-03T04:01:31.895Z,0.00
2019-01-03T04:02:31.863Z,0.00
2019-01-03T04:03:31.853Z,0.00
2019-01-03T04:04:31.886Z,0.00
2019-01-03T04:05:31.823Z,0.00
2019-01-03T04:06:31.884Z,0.00
2019-01-03T04:07:31.810Z,0.00
2019-01-03T04:08:31.792Z,0.00
2019-01-03T04:09:31.808Z,0.00
2019-01-03T04:10:31.788Z,0.00
2019-01-03T04:11:31.774Z,0.00
2019-01-03T04:12:31.757Z,0.00
2019-01-03T04:13:31.751Z,0.00
2019-01-03T04:14:31.741Z,0.00
2019-01-03T04:15:31.728Z,0.00
2019-01-03T04:16:31.712Z,0.00
2019-01-03T04:17:31.698Z,0.00
2019-01-03T04:18:31.687Z,0.00
2019-01-03T04:19:31.739Z,0.00
2019-01-03T04:20:31.673Z,0.00
2019-01-03T04:21:31.673Z,0.00
2019-01-03T04:22:31.654Z,0.00
2019-01-03T04:23:31.642Z,0.00
2019-01-03T04:24:31.640Z,0.00
2019-01-03T04:25:31.611Z,0.00
2019-01-03T04:26:31.603Z,0.00
2019-01-03T04:27:31.605Z,0.00
2019-01-03T04:28:31.580Z,0.00
2019-01-03T04:29:31.584Z,0.00
2019-01-03T04:30:31.559Z,0.00
2019-01-03T04:31:31.648Z,0.00
2019-01-03T04:32:31.554Z,0.00
2019-01-03T04:33:31.529Z,0.00
2019-01-03T04:34:31.510Z,0.00
2019-01-03T04:35:31.510Z,0.00
2019-01-03T04:36:31.493Z,0.00
2019-01-03T04:37:31.484Z,0.00
2019-01-03T04:38:31.470Z,0.00
2019-01-03T04:39:31.461Z,0.00
2019-01-03T04:40:31.455Z,0.00
2019-01-03T04:41:31.509Z,0.00
2019-01-03T04:42:31.436Z,0.00
2019-01-03T04:43:31.423Z,0.00
2019-01-03T04:44:31.412Z,0.00
2019-01-03T04:45:31.435Z,0.00
2019-01-03T04:46:31.388Z,0.00
2019-01-03T04:47:31.376Z,0.00
2019-01-03T04:48:31.432Z,0.00
2019-01-03T04:49:31.369Z,0.00
2019-01-03T04:50:31.346Z,0.00
2019-01-03T04:51:31.333Z,0.00
2019-01-03T04:52:31.325Z,0.00
2019-01-03T04:53:31.316Z,0.00
2019-01-03T04:54:31.319Z,0.00
2019-01-03T04:55:31.286Z,0.00
2019-01-03T04:56:31.280Z,0.00
2019-01-03T04:57:31.270Z,0.00
2019-01-03T04:58:31.360Z,0.00
2019-01-03T04:59:31.246Z,0.00
2019-01-03T05:00:31.239Z,0.00
2019-01-03T05:01:31.231Z,0.00
2019-01-03T05:02:31.221Z,0.00
2019-01-03T05:03:31.209Z,0.00
2019-01-03T05:04:31.198Z,0.00
2019-01-03T05:05:31.186Z,0.00
2019-01-03T05:06:31.176Z,0.00
2019-01-03T05:07:31.166Z,0.00
2019-01-03T05:08:31.165Z,0.00
2019-01-03T05:09:31.139Z,0.00
2019-01-03T05:10:31.129Z,0.00
2019-01-03T05:11:31.122Z,0.00
2019-01-03T05:12:31.115Z,0.00
2019-01-03T05:13:31.109Z,0.00
2019-01-03T05:14:31.100Z,0.00
2019-01-03T05:15:31.080Z,0.00
2019-01-03T05:16:31.071Z,0.00
2019-01-03T05:17:31.066Z,0.00
2019-01-03T05:18:32.019Z,0.00
2019-01-03T05:19:31.038Z,0.00
2019-01-03T05:20:31.059Z,0.00
2019-01-03T05:21:31.013Z,0.00
2019-01-03T05:22:31.003Z,0.00
2019-01-03T05:23:31.017Z,0.00
2019-01-03T05:24:30.978Z,0.00
2019-01-03T05:25:30.981Z,0.00
2019-01-03T05:26:30.983Z,0.00
2019-01-03T05:27:30.955Z,0.00
2019-01-03T05:28:30.943Z,0.00
2019-01-03T05:29:30.937Z,0.00
2019-01-03T05:30:30.924Z,0.00
2019-01-03T05:31:30.916Z,0.00
2019-01-03T05:32:30.903Z,0.00
2019-01-03T05:33:30.886Z,0.00
2019-01-03T05:34:30.880Z,0.00
2019-01-03T05:35:30.883Z,0.00
2019-01-03T05:36:30.869Z,0.00
2019-01-03T05:37:30.842Z,0.00
2019-01-03T05:38:30.838Z,0.00
2019-01-03T05:39:30.829Z,0.00
2019-01-03T05:40:30.840Z,0.00
2019-01-03T05:41:30.896Z,0.00
2019-01-03T05:42:30.811Z,44.00
2019-01-03T05:43:30.784Z,40.00
2019-01-03T05:44:30.767Z,40.00
2019-01-03T05:45:30.767Z,44.00
2019-01-03T05:46:30.753Z,40.00
2019-01-03T05:47:30.745Z,44.00
2019-01-03T05:48:30.744Z,44.00
2019-01-03T05:49:30.726Z,44.00
2019-01-03T05:50:30.711Z,44.00
2019-01-03T05:51:30.714Z,44.00
2019-01-03T05:52:30.701Z,44.00
2019-01-03T05:53:30.683Z,44.00
2019-01-03T05:54:30.669Z,44.00
2019-01-03T05:55:30.656Z,44.00
2019-01-03T05:56:30.648Z,44.00
2019-01-03T05:57:30.637Z,44.00
2019-01-03T05:58:30.714Z,44.00
2019-01-03T05:59:30.631Z,44.00
2019-01-03T06:00:30.608Z,44.00
2019-01-03T06:01:30.593Z,44.00
2019-01-03T06:02:30.599Z,44.00
2019-01-03T06:03:30.727Z,44.00
2019-01-03T06:04:30.568Z,44.00
2019-01-03T06:05:30.555Z,44.00
2019-01-03T06:06:30.551Z,44.00
2019-01-03T06:07:30.532Z,44.00
2019-01-03T06:08:30.526Z,44.00
2019-01-03T06:09:30.521Z,44.00
2019-01-03T06:10:30.499Z,44.00
2019-01-03T06:11:30.668Z,44.00
2019-01-03T06:12:30.485Z,44.00
2019-01-03T06:13:30.477Z,44.00
2019-01-03T06:14:30.463Z,44.00
2019-01-03T06:15:30.451Z,44.00
2019-01-03T06:16:30.444Z,44.00
2019-01-03T06:17:30.428Z,40.00
2019-01-03T06:18:30.411Z,44.00
2019-01-03T06:19:30.580Z,44.00
2019-01-03T06:20:30.391Z,44.00
2019-01-03T06:21:30.379Z,44.00
2019-01-03T06:22:30.389Z,44.00
2019-01-03T06:23:30.362Z,44.00
2019-01-03T06:24:30.350Z,44.00
2019-01-03T06:25:30.409Z,44.00
2019-01-03T06:26:30.345Z,44.00
2019-01-03T06:27:30.351Z,44.00
2019-01-03T06:28:30.323Z,44.00
2019-01-03T06:29:30.295Z,44.00
2019-01-03T06:30:30.283Z,44.00
2019-01-03T06:31:30.279Z,48.00
2019-01-03T06:32:30.265Z,44.00
2019-01-03T06:33:30.272Z,44.00
2019-01-03T06:34:30.257Z,44.00
2019-01-03T06:35:30.239Z,44.00
2019-01-03T06:36:35.977Z,44.00
2019-01-03T06:37:31.208Z,44.00
2019-01-03T06:38:30.199Z,44.00
2019-01-03T06:39:30.195Z,44.00
2019-01-03T06:40:30.185Z,44.00
2019-01-03T06:41:30.167Z,44.00
2019-01-03T06:42:30.162Z,44.00
2019-01-03T06:43:30.149Z,48.00
2019-01-03T06:44:30.142Z,44.00
2019-01-03T06:45:30.135Z,44.00
2019-01-03T06:46:30.139Z,48.00
2019-01-03T06:47:30.163Z,44.00
2019-01-03T06:48:30.096Z,48.00
2019-01-03T06:49:30.078Z,48.00
2019-01-03T06:50:30.072Z,52.00
2019-01-03T06:51:30.076Z,48.00
2019-01-03T06:52:30.069Z,48.00
2019-01-03T06:53:30.051Z,48.00
2019-01-03T06:54:30.041Z,52.00
2019-01-03T06:55:30.023Z,56.00
2019-01-03T06:56:30.014Z,56.00
2019-01-03T06:57:30.014Z,60.00
2019-01-03T06:58:30.010Z,60.00
2019-01-03T06:59:30.016Z,64.00
2019-01-03T07:00:29.969Z,68.00
2019-01-03T07:01:29.973Z,68.00
2019-01-03T07:02:29.955Z,68.00
2019-01-03T07:03:29.953Z,76.00
2019-01-03T07:04:29.931Z,76.00
2019-01-03T07:05:29.918Z,84.00
2019-01-03T07:06:29.910Z,84.00
2019-01-03T07:07:29.898Z,92.00
2019-01-03T07:08:29.914Z,96.00
2019-01-03T07:09:29.880Z,100.00
2019-01-03T07:10:29.870Z,104.00
2019-01-03T07:11:29.882Z,112.00
2019-01-03T07:12:29.848Z,116.00
2019-01-03T07:13:29.830Z,124.00
2019-01-03T07:14:29.864Z,132.00
2019-01-03T07:15:29.821Z,136.00
2019-01-03T07:16:29.805Z,144.00
2019-01-03T07:17:29.789Z,148.00
2019-01-03T07:18:29.786Z,156.00
2019-01-03T07:19:29.774Z,164.00
2019-01-03T07:20:29.765Z,168.00
2019-01-03T07:21:29.764Z,172.00
2019-01-03T07:22:29.756Z,176.00
2019-01-03T07:23:29.726Z,184.00
2019-01-03T07:24:29.727Z,192.00
2019-01-03T07:25:29.723Z,200.00
2019-01-03T07:26:29.698Z,200.00
2019-01-03T07:27:29.700Z,208.00
2019-01-03T07:28:29.682Z,216.00
2019-01-03T07:29:29.674Z,224.00
2019-01-03T07:30:29.658Z,232.00
2019-01-03T07:31:29.666Z,244.00
2019-01-03T07:32:29.634Z,248.00
2019-01-03T07:33:29.628Z,252.00
2019-01-03T07:34:29.630Z,264.00
2019-01-03T07:35:29.599Z,272.00
2019-01-03T07:36:29.591Z,280.00
2019-01-03T07:37:29.582Z,292.00
2019-01-03T07:38:29.582Z,300.00
2019-01-03T07:39:29.701Z,312.00
2019-01-03T07:40:29.551Z,328.00
2019-01-03T07:41:29.547Z,344.00
2019-01-03T07:42:29.537Z,368.00
2019-01-03T07:43:29.528Z,392.00
2019-01-03T07:44:29.526Z,400.00
2019-01-03T07:45:29.499Z,408.00
2019-01-03T07:46:29.495Z,416.00
2019-01-03T07:47:29.483Z,420.00
2019-01-03T07:48:29.465Z,412.00
2019-01-03T07:49:29.464Z,412.00
2019-01-03T07:50:29.453Z,432.00
2019-01-03T07:51:29.448Z,444.00
2019-01-03T07:52:29.423Z,448.00
2019-01-03T07:53:29.411Z,464.00
2019-01-03T07:54:29.410Z,476.00
2019-01-03T07:55:29.389Z,464.00
2019-01-03T07:56:29.412Z,456.00
2019-01-03T07:57:29.407Z,464.00
2019-01-03T07:58:29.398Z,472.00
2019-01-03T07:59:29.346Z,448.00
2019-01-03T08:00:29.380Z,440.00
2019-01-03T08:01:29.332Z,432.00
2019-01-03T08:02:29.315Z,436.00
2019-01-03T08:03:29.317Z,492.00
2019-01-03T08:04:29.326Z,572.00
2019-01-03T08:05:29.314Z,644.00
2019-01-03T08:06:29.275Z,696.00
2019-01-03T08:07:29.270Z,724.00
2019-01-03T08:08:29.253Z,724.00
2019-01-03T08:09:29.238Z,712.00
2019-01-03T08:10:29.238Z,712.00
2019-01-03T08:11:29.217Z,728.00
2019-01-03T08:12:29.208Z,732.00
2019-01-03T08:13:29.198Z,736.00
2019-01-03T08:14:29.194Z,760.00
2019-01-03T08:15:29.189Z,828.00
2019-01-03T08:16:29.164Z,912.00
2019-01-03T08:17:29.156Z,952.00
2019-01-03T08:18:29.147Z,972.00
2019-01-03T08:19:29.155Z,1008.00
2019-01-03T08:20:29.132Z,1044.00
2019-01-03T08:21:29.111Z,1116.00
2019-01-03T08:22:29.102Z,1188.00
2019-01-03T08:23:29.087Z,1212.00
2019-01-03T08:24:29.085Z,1296.00
2019-01-03T08:25:29.070Z,1388.00
2019-01-03T08:26:29.061Z,1432.00
2019-01-03T08:27:29.058Z,1464.00
2019-01-03T08:28:29.044Z,1556.00
2019-01-03T08:29:29.025Z,1556.00
2019-01-03T08:30:29.022Z,1580.00
2019-01-03T08:31:29.016Z,1600.00
2019-01-03T08:32:28.993Z,1604.00
2019-01-03T08:33:28.987Z,1556.00
2019-01-03T08:34:28.985Z,1560.00
2019-01-03T08:35:28.962Z,1632.00
2019-01-03T08:36:28.952Z,1724.00
2019-01-03T08:37:28.949Z,1876.00
2019-01-03T08:38:28.942Z,2016.00
2019-01-03T08:39:28.956Z,2076.00
2019-01-03T08:40:28.929Z,2032.00
2019-01-03T08:41:28.900Z,1840.00
2019-01-03T08:42:28.893Z,1584.00
2019-01-03T08:43:28.886Z,1500.00
2019-01-03T08:44:28.870Z,1532.00
2019-01-03T08:45:28.867Z,1548.00
2019-01-03T08:46:28.846Z,1524.00
2019-01-03T08:47:28.837Z,1672.00
2019-01-03T08:48:28.824Z,2184.00
2019-01-03T08:49:28.811Z,2196.00
2019-01-03T08:50:29.126Z,1772.00
2019-01-03T08:51:28.801Z,1436.00
2019-01-03T08:52:28.910Z,1284.00
2019-01-03T08:53:28.780Z,1224.00
2019-01-03T08:54:28.771Z,1208.00
2019-01-03T08:55:28.793Z,1112.00
2019-01-03T08:56:28.753Z,1084.00
2019-01-03T08:57:28.735Z,1108.00
2019-01-03T08:58:28.715Z,1132.00
2019-01-03T08:59:28.721Z,1180.00
2019-01-03T09:00:28.721Z,1260.00
2019-01-03T09:01:28.734Z,1264.00
2019-01-03T09:02:28.693Z,1240.00
2019-01-03T09:03:28.667Z,1236.00
2019-01-03T09:04:28.655Z,1092.00
2019-01-03T09:05:28.669Z,952.00
2019-01-03T09:06:28.640Z,868.00
2019-01-03T09:07:28.633Z,792.00
2019-01-03T09:08:28.630Z,860.00
2019-01-03T09:09:28.600Z,1040.00
2019-01-03T09:10:28.622Z,1076.00
2019-01-03T09:11:28.587Z,1084.00
2019-01-03T09:12:28.634Z,988.00
2019-01-03T09:13:28.561Z,924.00
2019-01-03T09:14:28.562Z,1008.00
2019-01-03T09:15:28.551Z,1252.00
2019-01-03T09:16:28.548Z,1180.00
2019-01-03T09:17:28.526Z,1032.00
2019-01-03T09:18:28.514Z,1120.00
2019-01-03T09:19:28.499Z,1004.00
2019-01-03T09:20:28.492Z,928.00
2019-01-03T09:21:28.486Z,900.00
2019-01-03T09:22:28.472Z,916.00
2019-01-03T09:23:28.456Z,924.00
2019-01-03T09:24:28.457Z,1036.00
2019-01-03T09:25:28.435Z,1012.00
2019-01-03T09:26:28.431Z,996.00
2019-01-03T09:27:28.443Z,940.00
2019-01-03T09:28:28.406Z,860.00
2019-01-03T09:29:28.398Z,772.00
2019-01-03T09:30:28.387Z,752.00
2019-01-03T09:31:28.375Z,760.00
2019-01-03T09:32:28.370Z,628.00
2019-01-03T09:33:28.360Z,536.00
2019-01-03T09:34:28.343Z,488.00
2019-01-03T09:35:28.336Z,444.00
2019-01-03T09:36:28.317Z,400.00
2019-01-03T09:37:28.316Z,392.00
2019-01-03T09:38:28.308Z,400.00
2019-01-03T09:39:28.289Z,456.00
2019-01-03T09:40:28.283Z,532.00
2019-01-03T09:41:28.268Z,592.00
2019-01-03T09:42:28.264Z,624.00
2019-01-03T09:43:28.290Z,672.00
2019-01-03T09:44:28.239Z,600.00
2019-01-03T09:45:28.223Z,600.00
2019-01-03T09:46:28.212Z,556.00
2019-01-03T09:47:28.306Z,580.00
2019-01-03T09:48:28.202Z,740.00
2019-01-03T09:49:28.189Z,932.00
2019-01-03T09:50:28.185Z,896.00
2019-01-03T09:51:28.240Z,728.00
2019-01-03T09:52:28.179Z,608.00
2019-01-03T09:53:28.132Z,572.00
2019-01-03T09:54:28.149Z,532.00
2019-01-03T09:55:28.131Z,492.00
2019-01-03T09:56:28.111Z,448.00
2019-01-03T09:57:28.104Z,452.00
2019-01-03T09:58:28.103Z,500.00
2019-01-03T09:59:28.071Z,560.00
2019-01-03T10:00:28.069Z,552.00
2019-01-03T10:01:28.053Z,644.00
2019-01-03T10:02:28.049Z,732.00
2019-01-03T10:03:28.033Z,800.00
2019-01-03T10:04:28.018Z,844.00
2019-01-03T10:05:28.021Z,876.00
2019-01-03T10:06:28.005Z,936.00
2019-01-03T10:07:27.987Z,880.00
2019-01-03T10:08:27.989Z,780.00
2019-01-03T10:09:27.993Z,808.00
2019-01-03T10:10:27.954Z,728.00
2019-01-03T10:11:27.952Z,644.00
2019-01-03T10:12:27.938Z,624.00
2019-01-03T10:13:27.952Z,720.00
2019-01-03T10:14:27.921Z,856.00
2019-01-03T10:15:27.909Z,976.00
2019-01-03T10:16:27.899Z,1100.00
2019-01-03T10:17:27.888Z,1136.00
2019-01-03T10:18:27.876Z,1012.00
2019-01-03T10:19:27.873Z,1152.00
2019-01-03T10:20:27.867Z,1392.00
2019-01-03T10:21:27.850Z,1364.00
2019-01-03T10:22:27.844Z,1348.00
2019-01-03T10:23:27.828Z,1316.00
2019-01-03T10:24:27.813Z,1364.00
2019-01-03T10:25:27.801Z,1288.00
2019-01-03T10:26:27.888Z,1172.00
2019-01-03T10:27:27.821Z,1064.00
2019-01-03T10:28:27.770Z,1000.00
2019-01-03T10:29:27.831Z,936.00
2019-01-03T10:30:28.286Z,924.00
2019-01-03T10:31:27.926Z,896.00
2019-01-03T10:32:27.796Z,884.00
2019-01-03T10:33:27.891Z,828.00
2019-01-03T10:34:27.714Z,720.00
2019-01-03T10:35:27.703Z,636.00
2019-01-03T10:36:27.689Z,592.00
2019-01-03T10:37:27.972Z,608.00
2019-01-03T10:38:27.896Z,688.00
2019-01-03T10:39:27.780Z,680.00
2019-01-03T10:40:27.716Z,684.00
2019-01-03T10:41:27.650Z,700.00
2019-01-03T10:42:28.000Z,748.00
2019-01-03T10:43:27.658Z,744.00
2019-01-03T10:44:27.629Z,828.00
2019-01-03T10:45:27.651Z,932.00
2019-01-03T10:46:27.597Z,964.00
2019-01-03T10:47:27.578Z,984.00
2019-01-03T10:48:27.570Z,1028.00
2019-01-03T10:49:27.561Z,1088.00
2019-01-03T10:50:27.546Z,1416.00
2019-01-03T10:51:27.598Z,1908.00
2019-01-03T10:52:27.881Z,2340.00
2019-01-03T10:53:29.024Z,2632.00
2019-01-03T10:54:27.509Z,2680.00
2019-01-03T10:55:27.769Z,2396.00
2019-01-03T10:56:27.605Z,2308.00
2019-01-03T10:57:27.542Z,2148.00
2019-01-03T10:58:27.721Z,2192.00
2019-01-03T10:59:28.076Z,2428.00
2019-01-03T11:00:28.314Z,2320.00
2019-01-03T11:01:27.645Z,2076.00
2019-01-03T11:02:27.870Z,1768.00
2019-01-03T11:03:29.793Z,1568.00
2019-01-03T11:04:27.475Z,1464.00
2019-01-03T11:05:27.443Z,1532.00
2019-01-03T11:06:27.373Z,2084.00
2019-01-03T11:07:27.442Z,2484.00
2019-01-03T11:08:27.402Z,2272.00
2019-01-03T11:09:27.416Z,1728.00
2019-01-03T11:10:27.375Z,1524.00
2019-01-03T11:11:27.349Z,1424.00
2019-01-03T11:12:27.312Z,1424.00
2019-01-03T11:13:27.394Z,1632.00
2019-01-03T11:14:27.367Z,1852.00
2019-01-03T11:15:27.319Z,2016.00
2019-01-03T11:16:27.364Z,2104.00
2019-01-03T11:17:27.454Z,2024.00
2019-01-03T11:18:27.535Z,1712.00
2019-01-03T11:19:27.413Z,1612.00
2019-01-03T11:20:27.237Z,1552.00
2019-01-03T11:21:27.228Z,1592.00
2019-01-03T11:22:27.285Z,1660.00
2019-01-03T11:23:27.231Z,1872.00
2019-01-03T11:24:27.187Z,2088.00
2019-01-03T11:25:27.187Z,2088.00
2019-01-03T11:26:27.174Z,1956.00
2019-01-03T11:27:27.179Z,1944.00
2019-01-03T11:28:27.148Z,2024.00
2019-01-03T11:29:27.141Z,2104.00
2019-01-03T11:30:27.143Z,2040.00
2019-01-03T11:31:27.191Z,1992.00
2019-01-03T11:32:27.104Z,1944.00
2019-01-03T11:33:27.151Z,1912.00
2019-01-03T11:34:27.145Z,1960.00
2019-01-03T11:35:27.069Z,2028.00
2019-01-03T11:36:27.074Z,2024.00
2019-01-03T11:37:27.052Z,1964.00
2019-01-03T11:38:27.037Z,1888.00
2019-01-03T11:39:27.040Z,1856.00
2019-01-03T11:40:27.047Z,1896.00
2019-01-03T11:41:27.015Z,2052.00
2019-01-03T11:42:27.441Z,2284.00
2019-01-03T11:43:26.988Z,2428.00
2019-01-03T11:44:27.081Z,2392.00
2019-01-03T11:45:26.987Z,2348.00
2019-01-03T11:46:26.976Z,2312.00
2019-01-03T11:47:27.296Z,2268.00
2019-01-03T11:48:27.154Z,2176.00
2019-01-03T11:49:27.304Z,2092.00
2019-01-03T11:50:26.942Z,2060.00
2019-01-03T11:51:26.914Z,2032.00
2019-01-03T11:52:26.953Z,2016.00
2019-01-03T11:53:26.892Z,2060.00
2019-01-03T11:54:26.887Z,2076.00
2019-01-03T11:55:26.870Z,2080.00
2019-01-03T11:56:26.856Z,2112.00
2019-01-03T11:57:26.839Z,2144.00
2019-01-03T11:58:26.831Z,2128.00
2019-01-03T11:59:26.818Z,2108.00
2019-01-03T12:00:26.872Z,2104.00
2019-01-03T12:01:26.813Z,2088.00
2019-01-03T12:02:26.787Z,2072.00
2019-01-03T12:03:26.827Z,2004.00
2019-01-03T12:04:26.771Z,1968.00
2019-01-03T12:05:26.752Z,1936.00
2019-01-03T12:06:26.759Z,1876.00
2019-01-03T12:07:26.927Z,1864.00
2019-01-03T12:08:26.736Z,1844.00
2019-01-03T12:09:26.787Z,1812.00
2019-01-03T12:10:26.740Z,1796.00
2019-01-03T12:11:26.739Z,1848.00
2019-01-03T12:12:26.719Z,1912.00
2019-01-03T12:13:26.699Z,1908.00
2019-01-03T12:14:26.679Z,1912.00
2019-01-03T12:15:26.663Z,1900.00
2019-01-03T12:16:26.661Z,1888.00
2019-01-03T12:17:26.640Z,1884.00
2019-01-03T12:18:26.675Z,1884.00
2019-01-03T12:19:26.736Z,1864.00
2019-01-03T12:20:26.607Z,1852.00
2019-01-03T12:21:26.594Z,1840.00
2019-01-03T12:22:26.590Z,1800.00
2019-01-03T12:23:26.614Z,1780.00
2019-01-03T12:24:30.554Z,1796.00
2019-01-03T12:25:26.544Z,1832.00
2019-01-03T12:26:26.550Z,1808.00
2019-01-03T12:27:26.533Z,1784.00
2019-01-03T12:28:26.527Z,1780.00
2019-01-03T12:29:26.532Z,1760.00
2019-01-03T12:30:26.535Z,1736.00
2019-01-03T12:31:26.542Z,1704.00
2019-01-03T12:32:26.483Z,1692.00
2019-01-03T12:33:26.462Z,1680.00
2019-01-03T12:34:26.476Z,1656.00
2019-01-03T12:35:26.480Z,1668.00
2019-01-03T12:36:26.439Z,1668.00
2019-01-03T12:37:26.414Z,1664.00
2019-01-03T12:38:26.616Z,1672.00
2019-01-03T12:39:26.406Z,1716.00
2019-01-03T12:40:26.412Z,1692.00
2019-01-03T12:41:26.420Z,1620.00
2019-01-03T12:42:26.418Z,1604.00
2019-01-03T12:43:26.443Z,1664.00
2019-01-03T12:44:26.434Z,1680.00
2019-01-03T12:45:26.407Z,1708.00
2019-01-03T12:46:26.388Z,1780.00